Time;durP1;ratioP1;P1;durP2;ratioP2;P2;SDS_P1;SDS_P2;PMS_P1;PMS_P2;Temp;Humidity;BMP_temperature;BMP_pressure;BME280_temperature;BME280_humidity;BME280_pressure;Samples;Min_cycle;Max_cycle;Signal;HPM_P1;HPM_P2
2020/12/13 00:02:21;;;;;;;5.95;5.45;;;2.30;99.90;;;;;;5020376;28;20596;-77
2020/12/13 00:04:47;;;;;;;5.93;5.32;;;2.30;99.90;;;;;;5019386;28;20235;-78
2020/12/13 00:07:16;;;;;;;5.65;5.25;;;2.30;99.90;;;;;;5021020;28;20219;-77
2020/12/13 00:09:42;;;;;;;5.97;5.47;;;2.30;99.90;;;;;;5026556;28;20274;-76
2020/12/13 00:12:09;;;;;;;5.50;5.10;;;2.40;99.90;;;;;;5028284;28;20666;-76
2020/12/13 00:14:35;;;;;;;5.40;5.00;;;2.40;99.90;;;;;;5028141;28;20440;-76
2020/12/13 00:17:02;;;;;;;4.82;4.53;;;2.40;99.90;;;;;;5024867;28;20223;-77
2020/12/13 00:19:31;;;;;;;5.20;4.90;;;2.40;99.90;;;;;;5020467;28;20283;-78
2020/12/13 00:21:57;;;;;;;5.10;4.70;;;2.50;99.90;;;;;;5020551;28;20698;-77
2020/12/13 00:24:24;;;;;;;4.10;3.90;;;2.50;99.90;;;;;;5027732;28;20204;-76
2020/12/13 00:26:51;;;;;;;5.03;4.72;;;2.50;99.90;;;;;;5022594;28;20227;-79
2020/12/13 00:29:18;;;;;;;4.82;4.53;;;2.50;99.90;;;;;;5019747;28;20224;-76
2020/12/13 00:31:45;;;;;;;5.10;4.60;;;2.50;99.90;;;;;;5022468;28;20223;-76
2020/12/13 00:34:11;;;;;;;4.70;4.40;;;2.50;99.90;;;;;;5024857;28;20677;-77
2020/12/13 00:36:38;;;;;;;4.65;4.35;;;2.60;99.90;;;;;;5026600;28;20228;-75
2020/12/13 00:39:05;;;;;;;4.65;4.35;;;2.60;99.90;;;;;;5020479;28;20383;-76
2020/12/13 00:41:32;;;;;;;5.45;5.05;;;2.60;99.90;;;;;;5025648;28;20223;-77
2020/12/13 00:43:59;;;;;;;4.95;4.55;;;2.60;99.90;;;;;;5022813;28;20209;-75
2020/12/13 00:46:26;;;;;;;5.20;4.80;;;2.60;99.90;;;;;;5023500;28;20278;-76
2020/12/13 00:48:53;;;;;;;4.97;4.57;;;2.60;99.90;;;;;;5024250;28;20203;-78
2020/12/13 00:51:24;;;;;;;5.03;4.63;;;2.50;99.90;;;;;;5017718;28;20732;-75
2020/12/13 00:53:52;;;;;;;4.93;4.55;;;2.50;99.90;;;;;;5020119;28;20200;-77
2020/12/13 00:56:18;;;;;;;5.10;4.70;;;2.50;99.90;;;;;;5023299;28;20227;-75
2020/12/13 00:58:45;;;;;;;4.75;4.43;;;2.60;99.90;;;;;;5025809;28;20207;-74
2020/12/13 01:01:11;;;;;;;4.88;4.57;;;2.60;99.90;;;;;;5018390;28;20220;-78
2020/12/13 01:03:38;;;;;;;4.28;4.07;;;2.60;99.90;;;;;;5024675;28;20203;-78
2020/12/13 01:06:04;;;;;;;4.75;4.45;;;2.60;99.90;;;;;;5025937;28;20535;-76
2020/12/13 01:08:31;;;;;;;5.30;4.40;;;2.70;99.90;;;;;;5023244;28;20192;-78
2020/12/13 01:10:58;;;;;;;4.72;4.43;;;2.70;99.90;;;;;;5020373;28;20516;-76
2020/12/13 01:13:25;;;;;;;4.93;4.63;;;2.70;99.90;;;;;;5024101;28;20199;-78
2020/12/13 01:15:53;;;;;;;5.00;4.70;;;2.70;99.90;;;;;;5015598;28;20230;-76
2020/12/13 01:18:20;;;;;;;5.22;4.82;;;2.70;99.90;;;;;;5011683;28;20279;-77
2020/12/13 01:20:46;;;;;;;4.90;4.60;;;2.70;99.90;;;;;;5002325;28;20268;-77
2020/12/13 01:23:13;;;;;;;4.53;4.22;;;2.70;99.90;;;;;;4999238;28;20209;-76
2020/12/13 01:25:39;;;;;;;4.75;4.45;;;2.70;99.90;;;;;;5003000;28;20290;-77
2020/12/13 01:28:07;;;;;;;4.53;4.22;;;2.70;99.90;;;;;;5003626;28;20579;-78
2020/12/13 01:30:33;;;;;;;4.85;4.55;;;2.70;99.90;;;;;;5005149;28;20224;-78
2020/12/13 01:33:00;;;;;;;4.60;4.30;;;2.70;99.90;;;;;;5001266;28;20262;-76
2020/12/13 01:35:27;;;;;;;5.30;4.90;;;2.70;99.90;;;;;;5030103;22;20218;-72
2020/12/13 01:37:53;;;;;;;4.63;4.32;;;2.60;99.90;;;;;;5025012;28;20290;-74
2020/12/13 01:40:20;;;;;;;5.15;4.85;;;2.60;99.90;;;;;;5032462;28;20230;-74
2020/12/13 01:42:47;;;;;;;5.35;4.95;;;2.60;99.90;;;;;;5024784;28;20234;-75
2020/12/13 01:45:18;;;;;;;4.80;4.50;;;2.60;99.90;;;;;;5025816;28;20698;-74
2020/12/13 01:47:46;;;;;;;4.88;4.57;;;2.60;99.90;;;;;;5007605;28;20746;-75
2020/12/13 01:50:25;;;;;;;5.55;5.15;;;2.60;99.90;;;;;;5007417;28;20675;-74
2020/12/13 01:52:53;;;;;;;5.20;4.80;;;2.50;99.90;;;;;;5009082;28;20196;-73
2020/12/13 01:55:21;;;;;;;5.53;5.13;;;2.50;99.90;;;;;;4999869;28;20276;-75
2020/12/13 01:57:54;;;;;;;5.35;4.95;;;2.40;99.90;;;;;;4995798;28;20196;-75
2020/12/13 02:00:22;;;;;;;5.85;5.07;;;2.40;99.90;;;;;;4992890;28;20217;-74
2020/12/13 02:02:54;;;;;;;5.57;5.15;;;2.30;99.90;;;;;;4994048;28;20660;-75
2020/12/13 02:05:21;;;;;;;5.65;5.15;;;2.30;99.90;;;;;;4980199;28;20216;-76
2020/12/13 02:07:48;;;;;;;5.55;5.15;;;2.30;99.90;;;;;;4989387;28;20200;-75
2020/12/13 02:10:16;;;;;;;5.55;5.05;;;2.20;99.90;;;;;;4989949;28;20231;-76
2020/12/13 02:12:43;;;;;;;5.57;5.18;;;2.10;99.90;;;;;;4996576;28;20235;-75
2020/12/13 02:15:11;;;;;;;5.70;5.20;;;2.00;99.90;;;;;;4987213;28;20203;-75
2020/12/13 02:17:38;;;;;;;4.90;4.55;;;2.00;99.90;;;;;;5008169;28;20227;-74
2020/12/13 02:20:07;;;;;;;4.85;4.55;;;2.00;99.90;;;;;;5007634;28;20250;-74
2020/12/13 02:22:38;;;;;;;5.47;5.07;;;2.00;99.90;;;;;;5016270;28;20204;-74
2020/12/13 02:25:09;;;;;;;5.20;4.80;;;2.00;99.90;;;;;;5000861;28;20212;-74
2020/12/13 02:27:36;;;;;;;4.47;4.18;;;2.00;99.90;;;;;;5006884;28;20274;-77
2020/12/13 02:30:04;;;;;;;5.03;4.72;;;2.00;99.90;;;;;;5011759;28;20255;-75
2020/12/13 02:32:31;;;;;;;4.90;4.60;;;2.00;99.90;;;;;;4987541;28;20197;-75
2020/12/13 02:34:57;;;;;;;5.05;4.75;;;2.00;99.90;;;;;;4992877;28;20220;-75
2020/12/13 02:37:24;;;;;;;5.40;5.00;;;2.00;99.90;;;;;;5000400;28;20232;-75
2020/12/13 02:39:51;;;;;;;4.38;4.13;;;2.00;99.90;;;;;;5002024;28;20615;-75
2020/12/13 02:42:18;;;;;;;4.70;4.40;;;2.00;99.90;;;;;;5012398;28;20713;-75
2020/12/13 02:44:44;;;;;;;5.10;4.70;;;2.00;99.90;;;;;;5010819;28;20678;-76
2020/12/13 02:47:11;;;;;;;4.72;4.43;;;2.00;99.90;;;;;;5010622;28;20227;-74
2020/12/13 02:49:40;;;;;;;4.68;4.30;;;2.00;99.90;;;;;;5000435;28;20224;-74
2020/12/13 02:52:07;;;;;;;4.57;4.15;;;2.00;99.90;;;;;;4986752;28;20703;-77
2020/12/13 02:54:34;;;;;;;4.32;4.03;;;2.00;99.90;;;;;;4987764;28;20201;-76
2020/12/13 02:57:04;;;;;;;5.15;4.85;;;1.90;99.90;;;;;;4992041;28;20221;-77
2020/12/13 02:59:30;;;;;;;4.07;3.88;;;1.90;99.90;;;;;;4985116;28;20849;-74
2020/12/13 03:01:57;;;;;;;4.38;4.07;;;1.90;99.90;;;;;;4988805;28;20221;-76
2020/12/13 03:04:23;;;;;;;4.68;4.38;;;1.90;99.90;;;;;;4994314;28;20255;-74
2020/12/13 03:06:50;;;;;;;4.38;4.07;;;1.90;99.90;;;;;;5000763;28;20224;-77
2020/12/13 03:09:16;;;;;;;4.72;4.43;;;1.90;99.90;;;;;;4999782;28;20197;-74
2020/12/13 03:11:43;;;;;;;4.80;4.40;;;1.90;99.90;;;;;;5007968;28;20224;-75
2020/12/13 03:14:10;;;;;;;4.90;4.60;;;1.90;99.90;;;;;;5009209;28;20205;-74
2020/12/13 03:16:37;;;;;;;5.00;4.70;;;1.90;99.90;;;;;;5004420;28;20267;-74
2020/12/13 03:19:03;;;;;;;4.63;4.32;;;1.90;99.90;;;;;;5004491;28;20196;-74
2020/12/13 03:21:31;;;;;;;4.30;4.00;;;1.80;99.90;;;;;;5004800;28;20267;-74
2020/12/13 03:23:57;;;;;;;4.47;4.18;;;1.90;99.90;;;;;;5005771;28;20254;-74
2020/12/13 03:26:24;;;;;;;4.78;4.47;;;1.90;99.90;;;;;;5003959;28;20219;-74
2020/12/13 03:28:51;;;;;;;4.65;4.35;;;1.80;99.90;;;;;;5002618;28;20200;-74
2020/12/13 03:31:18;;;;;;;4.78;4.47;;;1.80;99.90;;;;;;5006919;28;20703;-74
2020/12/13 03:33:46;;;;;;;4.90;4.55;;;1.80;99.90;;;;;;5012804;28;20254;-74
2020/12/13 03:36:13;;;;;;;4.85;4.55;;;1.70;99.90;;;;;;5017578;28;20263;-74
2020/12/13 03:38:40;;;;;;;4.40;4.10;;;1.70;99.90;;;;;;5015671;28;20595;-74
2020/12/13 03:41:06;;;;;;;4.25;4.03;;;1.70;99.90;;;;;;5004451;28;20223;-74
2020/12/13 03:43:33;;;;;;;4.35;4.15;;;1.70;99.90;;;;;;5011274;28;20212;-74
2020/12/13 03:45:59;;;;;;;4.68;4.38;;;1.70;99.90;;;;;;5011336;28;20224;-75
2020/12/13 03:48:27;;;;;;;4.45;4.20;;;1.70;99.90;;;;;;5012299;28;20200;-76
2020/12/13 03:50:53;;;;;;;4.63;4.32;;;1.70;99.90;;;;;;5004299;28;20232;-74
2020/12/13 03:53:20;;;;;;;4.55;4.25;;;1.70;99.90;;;;;;5011287;28;20651;-74
2020/12/13 03:55:46;;;;;;;4.70;4.40;;;1.70;99.90;;;;;;5015138;28;20252;-74
2020/12/13 03:58:13;;;;;;;4.18;3.88;;;1.70;99.90;;;;;;5013383;28;20589;-76
2020/12/13 04:00:40;;;;;;;4.35;4.05;;;1.70;99.90;;;;;;5003615;28;20329;-75
2020/12/13 04:03:07;;;;;;;4.28;3.97;;;1.70;99.90;;;;;;5013827;28;20204;-74
2020/12/13 04:05:35;;;;;;;4.15;3.95;;;1.60;99.90;;;;;;5015922;28;20227;-75
2020/12/13 04:08:02;;;;;;;4.63;4.32;;;1.60;99.90;;;;;;5010129;28;20243;-74
2020/12/13 04:10:28;;;;;;;4.63;4.32;;;1.70;99.90;;;;;;5014171;28;20220;-74
2020/12/13 04:12:55;;;;;;;4.30;4.00;;;1.70;99.90;;;;;;5011731;28;20196;-74
2020/12/13 04:15:22;;;;;;;4.22;3.92;;;1.70;99.90;;;;;;5014770;28;20693;-74
2020/12/13 04:17:48;;;;;;;4.47;4.18;;;1.60;99.90;;;;;;5014498;28;20610;-74
2020/12/13 04:20:15;;;;;;;4.00;3.70;;;1.60;99.90;;;;;;5011413;28;20201;-75
2020/12/13 04:22:43;;;;;;;4.55;4.32;;;1.60;99.90;;;;;;5003362;28;20274;-77
2020/12/13 04:25:10;;;;;;;4.35;4.15;;;1.60;99.90;;;;;;5012671;28;20203;-76
2020/12/13 04:27:36;;;;;;;3.80;3.60;;;1.60;99.90;;;;;;5013690;28;20223;-76
2020/12/13 04:30:04;;;;;;;3.67;3.45;;;1.60;99.90;;;;;;5014722;28;20224;-76
2020/12/13 04:32:31;;;;;;;4.68;4.38;;;1.60;99.90;;;;;;5008295;28;20216;-76
2020/12/13 04:34:57;;;;;;;4.53;4.13;;;1.60;99.90;;;;;;5009472;28;20207;-76
2020/12/13 04:37:24;;;;;;;4.50;4.20;;;1.60;99.90;;;;;;5018379;28;20223;-77
2020/12/13 04:39:52;;;;;;;4.40;4.10;;;1.60;99.90;;;;;;5012576;28;20676;-75
2020/12/13 04:42:19;;;;;;;4.47;4.20;;;1.60;99.90;;;;;;5004168;28;20699;-74
2020/12/13 04:44:47;;;;;;;4.35;4.13;;;1.60;99.90;;;;;;5009888;28;20204;-74
2020/12/13 04:47:17;;;;;;;4.15;3.85;;;1.60;99.90;;;;;;5013238;28;20311;-74
2020/12/13 04:49:47;;;;;;;4.57;4.28;;;1.50;99.90;;;;;;5011725;28;20248;-74
2020/12/13 04:52:13;;;;;;;4.50;4.20;;;1.50;99.90;;;;;;5004509;28;20286;-77
2020/12/13 04:54:48;;;;;;;4.03;3.83;;;1.40;99.90;;;;;;5011171;28;20203;-74
2020/12/13 04:57:16;;;;;;;3.92;3.72;;;1.30;99.90;;;;;;5015130;28;20251;-74
2020/12/13 04:59:43;;;;;;;4.18;3.92;;;1.30;99.90;;;;;;5010263;28;20288;-75
2020/12/13 05:02:12;;;;;;;4.20;4.00;;;1.30;99.90;;;;;;5015186;28;20599;-75
2020/12/13 05:04:39;;;;;;;3.58;3.38;;;1.40;99.90;;;;;;5011046;28;20227;-74
2020/12/13 05:07:05;;;;;;;3.70;3.50;;;1.40;99.90;;;;;;5004349;28;20231;-74
2020/12/13 05:09:32;;;;;;;4.07;3.88;;;1.40;99.90;;;;;;5012842;28;20196;-73
2020/12/13 05:11:58;;;;;;;4.55;4.28;;;1.40;99.90;;;;;;5014954;28;20215;-74
2020/12/13 05:14:26;;;;;;;4.63;4.22;;;1.40;99.90;;;;;;5011851;28;20200;-73
2020/12/13 05:17:09;;;;;;;4.50;4.20;;;1.50;99.90;;;;;;5008348;28;20235;-74
2020/12/13 05:19:38;;;;;;;3.92;3.72;;;1.50;99.90;;;;;;5008540;28;20199;-75
2020/12/13 05:22:05;;;;;;;3.92;3.72;;;1.50;99.90;;;;;;5011190;28;20299;-75
2020/12/13 05:24:33;;;;;;;3.90;3.60;;;1.50;99.90;;;;;;5016764;28;20201;-75
2020/12/13 05:27:01;;;;;;;4.45;4.15;;;1.60;99.90;;;;;;5003977;28;20224;-75
2020/12/13 05:29:32;;;;;;;3.78;3.58;;;1.60;99.90;;;;;;5010992;28;20204;-75
2020/12/13 05:32:13;;;;;;;4.25;3.95;;;1.60;99.90;;;;;;5010949;28;20224;-75
2020/12/13 05:34:45;;;;;;;4.45;4.15;;;1.60;99.90;;;;;;5011800;28;20235;-74
2020/12/13 05:37:16;;;;;;;4.10;3.90;;;1.60;99.90;;;;;;5000275;28;20227;-73
2020/12/13 05:39:44;;;;;;;4.22;4.03;;;1.60;99.90;;;;;;5011598;28;20196;-73
2020/12/13 05:42:15;;;;;;;4.22;3.92;;;1.60;99.90;;;;;;5012233;28;20225;-75
2020/12/13 05:53:07;;;;;;;4.00;3.80;;;1.60;99.90;;;;;;4967208;28;20268;-74
2020/12/13 05:55:33;;;;;;;4.57;4.28;;;1.60;99.90;;;;;;5014121;28;20216;-74
2020/12/13 05:58:01;;;;;;;4.60;4.30;;;1.70;99.90;;;;;;5004036;28;20221;-75
2020/12/13 06:00:28;;;;;;;4.30;4.10;;;1.70;99.90;;;;;;5012047;28;20192;-74
2020/12/13 06:02:58;;;;;;;3.90;3.65;;;1.60;99.90;;;;;;5010451;28;20216;-73
2020/12/13 06:05:28;;;;;;;3.88;3.67;;;1.60;99.90;;;;;;5014446;28;20227;-75
2020/12/13 06:07:58;;;;;;;4.18;3.88;;;1.60;99.90;;;;;;5003183;28;20657;-74
2020/12/13 06:10:25;;;;;;;4.13;3.83;;;1.50;99.90;;;;;;5007906;28;20637;-74
2020/12/13 06:12:59;;;;;;;3.75;3.55;;;1.50;99.90;;;;;;5007891;28;20249;-75
2020/12/13 06:15:31;;;;;;;3.92;3.72;;;1.50;99.90;;;;;;5007098;28;20682;-74
2020/12/13 06:17:58;;;;;;;4.30;4.00;;;1.50;99.90;;;;;;5007417;28;20216;-74
2020/12/13 06:20:25;;;;;;;4.15;3.95;;;1.50;99.90;;;;;;4999089;28;20757;-74
2020/12/13 06:22:52;;;;;;;4.15;3.95;;;1.60;99.90;;;;;;5003909;28;20653;-74
2020/12/13 06:25:20;;;;;;;4.07;3.88;;;1.60;99.90;;;;;;5007357;28;20200;-75
2020/12/13 06:27:48;;;;;;;3.45;3.25;;;1.60;99.90;;;;;;5010685;28;20273;-73
2020/12/13 06:30:16;;;;;;;4.70;4.40;;;1.60;99.90;;;;;;5002092;28;20311;-75
2020/12/13 06:32:46;;;;;;;5.20;4.80;;;1.60;99.90;;;;;;5012807;28;20786;-75
2020/12/13 06:35:13;;;;;;;5.03;4.72;;;1.60;99.90;;;;;;5017296;28;20211;-74
2020/12/13 06:37:40;;;;;;;4.25;3.95;;;1.60;99.90;;;;;;5009554;28;20568;-75
2020/12/13 06:40:08;;;;;;;4.68;4.38;;;1.60;99.90;;;;;;5006136;28;20267;-76
2020/12/13 06:42:39;;;;;;;4.75;4.45;;;1.50;99.90;;;;;;5009310;28;20243;-75
2020/12/13 06:45:07;;;;;;;4.70;4.40;;;1.50;99.90;;;;;;5013928;28;20199;-75
2020/12/13 06:47:39;;;;;;;3.60;3.40;;;1.50;99.90;;;;;;5015601;28;20220;-75
2020/12/13 06:50:08;;;;;;;3.78;3.58;;;1.50;99.90;;;;;;5009013;28;20540;-76
2020/12/13 06:52:35;;;;;;;4.95;4.65;;;1.50;99.90;;;;;;5012109;28;20247;-76
2020/12/13 06:55:03;;;;;;;4.95;4.57;;;1.50;99.90;;;;;;5013790;28;20200;-76
2020/12/13 06:57:31;;;;;;;4.72;4.43;;;1.40;99.90;;;;;;5012375;28;20223;-76
2020/12/13 06:59:58;;;;;;;4.53;4.25;;;1.40;99.90;;;;;;5019701;28;20584;-77
2020/12/13 07:02:55;;;;;;;4.47;4.18;;;1.40;99.90;;;;;;4998255;28;20227;-77
2020/12/13 07:05:43;;;;;;;3.63;3.40;;;1.40;99.90;;;;;;4968903;28;20197;-76
2020/12/13 07:08:11;;;;;;;4.22;4.03;;;1.40;99.90;;;;;;5003418;28;20221;-76
2020/12/13 07:10:40;;;;;;;4.43;4.13;;;1.50;99.90;;;;;;5003483;28;20228;-75
2020/12/13 07:13:08;;;;;;;4.47;4.18;;;1.50;99.90;;;;;;5006016;28;20231;-76
2020/12/13 07:15:45;;;;;;;5.78;5.35;;;1.60;99.90;;;;;;5005944;28;20208;-75
2020/12/13 07:18:17;;;;;;;7.13;6.22;;;1.60;99.90;;;;;;5007490;28;20286;-76
2020/12/13 07:20:45;;;;;;;7.63;6.65;;;1.60;99.90;;;;;;5003609;28;20189;-75
2020/12/13 07:23:12;;;;;;;8.48;7.22;;;1.60;99.90;;;;;;5011620;28;20303;-75
2020/12/13 07:25:39;;;;;;;8.32;7.18;;;1.60;99.90;;;;;;5015933;28;20212;-75
2020/12/13 07:28:07;;;;;;;7.57;6.85;;;1.60;99.90;;;;;;5013016;28;20718;-75
2020/12/13 07:30:36;;;;;;;7.68;6.82;;;1.60;99.90;;;;;;5014047;28;20699;-75
2020/12/13 07:33:03;;;;;;;8.70;7.28;;;1.60;99.90;;;;;;4992635;28;20223;-75
2020/12/13 07:35:30;;;;;;;7.00;6.30;;;1.50;99.90;;;;;;5010013;23;20211;-76
2020/12/13 07:37:57;;;;;;;6.40;5.80;;;1.60;99.90;;;;;;5008644;28;20638;-75
2020/12/13 07:40:24;;;;;;;6.13;5.63;;;1.50;99.90;;;;;;5007410;28;20630;-77
2020/12/13 07:42:55;;;;;;;5.97;5.47;;;1.50;99.90;;;;;;5004993;28;20220;-77
2020/12/13 07:45:21;;;;;;;4.82;4.43;;;1.50;99.90;;;;;;5006890;28;20207;-77
2020/12/13 07:48:00;;;;;;;5.55;4.95;;;1.40;99.90;;;;;;5006075;28;20228;-76
2020/12/13 07:50:28;;;;;;;4.82;4.47;;;1.40;99.90;;;;;;5006629;28;20384;-77
2020/12/13 07:52:54;;;;;;;5.22;4.93;;;1.40;99.90;;;;;;5009981;28;20220;-76
2020/12/13 07:55:22;;;;;;;4.90;4.60;;;1.40;99.90;;;;;;5001504;28;20196;-77
2020/12/13 07:57:49;;;;;;;4.63;4.32;;;1.50;99.90;;;;;;5011904;28;20216;-76
2020/12/13 08:00:16;;;;;;;4.82;4.43;;;1.50;99.90;;;;;;5010325;28;20208;-75
2020/12/13 08:02:43;;;;;;;4.20;4.00;;;1.50;99.90;;;;;;5010393;28;20217;-77
2020/12/13 08:05:12;;;;;;;4.13;3.80;;;1.60;99.90;;;;;;5004903;28;20239;-77
2020/12/13 08:07:38;;;;;;;5.60;5.15;;;1.60;99.90;;;;;;5012212;28;20228;-77
2020/12/13 08:10:05;;;;;;;7.35;6.65;;;1.60;99.90;;;;;;5012134;28;20210;-76
2020/12/13 08:12:38;;;;;;;6.18;5.57;;;1.50;99.90;;;;;;5012538;28;20227;-75
2020/12/13 08:15:05;;;;;;;7.28;6.68;;;1.60;99.90;;;;;;5005390;28;21571;-77
2020/12/13 08:17:32;;;;;;;8.77;8.07;;;2.40;99.90;;;;;;5006547;28;20271;-76
2020/12/13 08:20:03;;;;;;;8.88;8.10;;;3.40;99.90;;;;;;5005417;28;20207;-76
2020/12/13 08:22:34;;;;;;;7.68;7.03;;;4.30;99.90;;;;;;5014403;28;20216;-75
2020/12/13 08:25:03;;;;;;;6.57;6.10;;;5.20;99.90;;;;;;5006337;28;20694;-76
2020/12/13 08:27:31;;;;;;;6.47;5.35;;;5.90;99.90;;;;;;5001179;28;20601;-75
2020/12/13 08:29:59;;;;;;;5.97;5.45;;;6.40;99.90;;;;;;5009755;28;20220;-76
2020/12/13 08:32:31;;;;;;;5.90;5.50;;;6.60;99.90;;;;;;5009813;28;20255;-76
2020/12/13 08:35:09;;;;;;;5.55;5.05;;;6.80;99.90;;;;;;5005824;28;20247;-76
2020/12/13 08:37:35;;;;;;;5.95;5.35;;;7.00;99.90;;;;;;5002266;28;20737;-77
2020/12/13 08:40:02;;;;;;;5.47;5.07;;;7.50;99.90;;;;;;5007773;28;20200;-74
2020/12/13 08:42:29;;;;;;;5.18;4.82;;;8.00;99.90;;;;;;5004040;28;20740;-75
2020/12/13 08:44:55;;;;;;;5.50;5.10;;;8.40;99.90;;;;;;5006784;28;20201;-76
2020/12/13 08:47:31;;;;;;;5.55;5.05;;;8.70;99.90;;;;;;5008076;28;20227;-76
2020/12/13 08:49:58;;;;;;;5.50;5.00;;;9.20;99.90;;;;;;5000185;28;20235;-77
2020/12/13 08:52:26;;;;;;;5.63;5.05;;;9.70;99.90;;;;;;5006464;28;20236;-76
2020/12/13 08:54:53;;;;;;;5.43;4.93;;;10.20;99.90;;;;;;5009516;28;20246;-76
2020/12/13 08:57:30;;;;;;;5.43;4.95;;;10.60;99.90;;;;;;5007112;28;20227;-73
2020/12/13 09:00:03;;;;;;;6.05;5.45;;;11.20;99.90;;;;;;4997792;28;20201;-76
2020/12/13 09:02:31;;;;;;;5.63;5.13;;;11.70;99.90;;;;;;5004573;28;20278;-75
2020/12/13 09:04:58;;;;;;;5.68;5.18;;;12.00;99.90;;;;;;5008137;28;20211;-76
2020/12/13 09:07:31;;;;;;;5.03;4.63;;;12.40;99.90;;;;;;5008652;28;20224;-75
2020/12/13 09:10:10;;;;;;;6.13;5.55;;;13.20;99.90;;;;;;5001159;28;20243;-76
2020/12/13 09:12:38;;;;;;;6.35;5.68;;;14.30;99.90;;;;;;5005427;28;20725;-76
2020/12/13 09:15:09;;;;;;;4.78;4.28;;;15.60;99.90;;;;;;5009102;28;20200;-77
2020/12/13 09:17:37;;;;;;;4.65;4.25;;;16.70;99.90;;;;;;5009515;28;20230;-79
2020/12/13 09:20:05;;;;;;;4.30;4.00;;;17.70;99.90;;;;;;5010024;28;20197;-75
2020/12/13 09:22:31;;;;;;;4.68;4.28;;;18.80;99.90;;;;;;5011918;28;20323;-75
2020/12/13 09:24:59;;;;;;;3.97;3.67;;;19.50;99.70;;;;;;5009613;28;20204;-76
2020/12/13 09:27:26;;;;;;;5.35;4.88;;;19.70;98.80;;;;;;5012538;28;20246;-76
2020/12/13 09:29:53;;;;;;;4.90;4.40;;;20.00;95.30;;;;;;5015473;28;20647;-75
2020/12/13 09:32:22;;;;;;;4.75;3.88;;;20.00;94.80;;;;;;5011486;28;20224;-76
2020/12/13 09:34:49;;;;;;;4.18;3.78;;;20.20;94.20;;;;;;5007021;28;20205;-76
2020/12/13 09:37:17;;;;;;;3.83;3.53;;;20.70;92.60;;;;;;5011447;28;20228;-76
2020/12/13 09:39:43;;;;;;;3.80;3.50;;;20.80;90.10;;;;;;5011194;28;20192;-76
2020/12/13 09:42:11;;;;;;;3.33;3.03;;;20.80;90.60;;;;;;5010920;28;20217;-76
2020/12/13 09:44:38;;;;;;;3.33;3.13;;;20.70;87.50;;;;;;5004735;28;20203;-75
2020/12/13 09:47:05;;;;;;;4.10;3.80;;;20.60;86.90;;;;;;5006101;28;20232;-74
2020/12/13 09:49:32;;;;;;;4.40;3.70;;;20.50;87.20;;;;;;5011439;28;20200;-76
2020/12/13 09:52:01;;;;;;;3.92;3.58;;;20.20;86.90;;;;;;5010113;28;20250;-75
2020/12/13 09:54:27;;;;;;;4.90;4.05;;;19.70;88.80;;;;;;5008782;28;20196;-74
2020/12/13 09:56:54;;;;;;;4.68;4.28;;;18.90;90.60;;;;;;5008304;28;20235;-73
2020/12/13 09:59:22;;;;;;;4.63;4.32;;;17.90;92.20;;;;;;5012576;28;20650;-76
2020/12/13 10:01:48;;;;;;;5.30;4.80;;;16.60;92.90;;;;;;5010829;28;20236;-74
2020/12/13 10:04:17;;;;;;;5.28;4.88;;;15.10;96.40;;;;;;5011338;28;20206;-75
2020/12/13 10:09:19;;;;;;;6.20;5.00;;;13.60;99.90;;;;;;5014921;28;20192;-74
2020/12/13 10:11:46;;;;;;;8.50;6.53;;;12.90;99.90;;;;;;5014771;28;20212;-75
2020/12/13 10:14:14;;;;;;;5.65;4.93;;;12.50;99.90;;;;;;5012021;28;20207;-75
2020/12/13 10:16:42;;;;;;;5.10;4.68;;;12.10;99.90;;;;;;5001734;28;20978;-74
2020/12/13 10:19:09;;;;;;;5.10;4.60;;;11.80;99.90;;;;;;5009074;28;20196;-75
2020/12/13 10:21:36;;;;;;;5.43;4.45;;;11.70;99.90;;;;;;5013821;28;20203;-75
2020/12/13 10:24:04;;;;;;;4.97;4.55;;;11.70;99.90;;;;;;5009888;28;20659;-75
2020/12/13 10:26:35;;;;;;;4.28;3.95;;;11.80;99.90;;;;;;5010837;28;20224;-74
2020/12/13 10:29:01;;;;;;;4.40;4.10;;;11.90;99.90;;;;;;4986964;28;20221;-75
2020/12/13 10:31:28;;;;;;;5.00;4.60;;;11.80;99.90;;;;;;4994208;28;20221;-75
2020/12/13 10:33:55;;;;;;;4.47;4.18;;;12.00;99.90;;;;;;4998519;28;20216;-73
2020/12/13 10:36:22;;;;;;;5.00;4.50;;;12.10;99.90;;;;;;5001005;28;20577;-76
2020/12/13 10:38:51;;;;;;;5.13;4.72;;;11.90;99.90;;;;;;4994980;28;20220;-73
2020/12/13 10:41:19;;;;;;;6.25;4.88;;;11.70;99.90;;;;;;4993497;28;20664;-76
2020/12/13 10:43:46;;;;;;;5.95;4.47;;;11.60;99.90;;;;;;4989595;28;20304;-78
2020/12/13 10:46:13;;;;;;;4.80;4.40;;;11.40;99.90;;;;;;4993130;28;20229;-76
2020/12/13 10:48:40;;;;;;;4.53;4.22;;;11.30;99.90;;;;;;4981533;28;20217;-78
2020/12/13 10:51:06;;;;;;;4.65;4.25;;;11.50;99.90;;;;;;4991778;28;20608;-75
2020/12/13 10:53:33;;;;;;;4.68;4.28;;;11.70;99.90;;;;;;4993305;28;20562;-75
2020/12/13 10:55:59;;;;;;;4.53;4.13;;;11.90;99.90;;;;;;4993231;28;20221;-75
2020/12/13 10:58:26;;;;;;;4.65;4.25;;;12.00;99.90;;;;;;4993964;28;20225;-75
2020/12/13 11:00:53;;;;;;;4.55;4.10;;;12.10;99.90;;;;;;4993532;28;20197;-76
2020/12/13 11:03:20;;;;;;;5.22;4.72;;;12.10;99.90;;;;;;4995873;28;20721;-75
2020/12/13 11:05:46;;;;;;;4.72;4.32;;;12.30;99.90;;;;;;4997157;28;20745;-75
2020/12/13 11:08:14;;;;;;;4.82;4.43;;;12.20;99.90;;;;;;4994500;28;20279;-75
2020/12/13 11:10:45;;;;;;;4.82;4.45;;;11.90;99.90;;;;;;4988068;28;20196;-75
2020/12/13 11:13:12;;;;;;;4.70;4.30;;;11.50;99.90;;;;;;4985309;28;20239;-74
2020/12/13 11:15:39;;;;;;;5.25;4.78;;;11.50;99.90;;;;;;4992412;28;20687;-76
2020/12/13 11:18:07;;;;;;;4.80;4.50;;;11.80;99.90;;;;;;4990280;28;20220;-75
2020/12/13 11:20:33;;;;;;;5.00;4.45;;;11.90;99.90;;;;;;4995479;28;20225;-74
2020/12/13 11:23:00;;;;;;;4.53;4.13;;;11.90;99.90;;;;;;4987461;28;20221;-75
2020/12/13 11:25:27;;;;;;;4.80;4.40;;;11.90;99.90;;;;;;4990570;28;20209;-77
2020/12/13 11:27:53;;;;;;;4.60;4.20;;;11.80;99.90;;;;;;4994417;28;20735;-74
2020/12/13 11:30:20;;;;;;;4.70;4.35;;;11.60;99.90;;;;;;4990113;28;20201;-75
2020/12/13 11:32:47;;;;;;;4.18;3.85;;;11.40;99.90;;;;;;4991435;28;20237;-77
2020/12/13 11:35:14;;;;;;;4.90;4.50;;;11.20;99.90;;;;;;4984060;28;20201;-81
2020/12/13 11:37:41;;;;;;;4.47;4.07;;;11.30;99.90;;;;;;4990323;28;20224;-75
2020/12/13 11:40:08;;;;;;;5.50;4.72;;;11.60;99.90;;;;;;4992271;28;20213;-75
2020/12/13 11:42:35;;;;;;;4.43;4.13;;;11.90;99.90;;;;;;4994205;28;20601;-75
2020/12/13 11:45:01;;;;;;;4.72;4.35;;;12.30;99.90;;;;;;4993395;28;20197;-76
2020/12/13 11:47:28;;;;;;;4.28;3.95;;;12.60;99.90;;;;;;4988681;28;20326;-77
2020/12/13 11:49:55;;;;;;;4.75;4.45;;;12.50;99.90;;;;;;4995422;28;20209;-76
2020/12/13 11:52:22;;;;;;;4.68;3.97;;;12.50;99.90;;;;;;4999244;28;20225;-76
2020/12/13 11:54:48;;;;;;;4.22;3.83;;;12.50;99.90;;;;;;4993498;28;20205;-75
2020/12/13 11:57:15;;;;;;;4.28;3.85;;;12.30;99.90;;;;;;4987041;28;20228;-74
2020/12/13 11:59:42;;;;;;;4.45;3.80;;;12.20;99.90;;;;;;4994300;28;20193;-75
2020/12/13 12:02:08;;;;;;;4.15;3.85;;;12.10;99.90;;;;;;4992342;28;20566;-73
2020/12/13 12:04:35;;;;;;;4.35;3.97;;;12.10;99.90;;;;;;4993000;28;20207;-75
2020/12/13 12:07:02;;;;;;;4.53;4.13;;;11.90;99.90;;;;;;4991065;28;20221;-75
2020/12/13 12:09:29;;;;;;;4.30;3.75;;;11.80;99.90;;;;;;4994573;28;20275;-75
2020/12/13 12:11:56;;;;;;;4.53;4.13;;;11.70;99.90;;;;;;4995299;28;20221;-75
2020/12/13 12:14:22;;;;;;;4.50;4.20;;;11.60;99.90;;;;;;4994583;28;20193;-75
2020/12/13 12:16:49;;;;;;;4.65;4.25;;;11.60;99.90;;;;;;4991656;28;20217;-75
2020/12/13 12:19:16;;;;;;;3.83;3.53;;;11.60;99.90;;;;;;4990978;28;20217;-74
2020/12/13 12:21:47;;;;;;;3.97;3.67;;;11.70;99.90;;;;;;4995352;28;20209;-76
2020/12/13 12:24:16;;;;;;;4.10;3.80;;;11.70;99.90;;;;;;4994495;28;20248;-75
2020/12/13 12:26:43;;;;;;;4.28;3.97;;;11.50;99.90;;;;;;4990415;28;20480;-75
2020/12/13 12:29:10;;;;;;;4.32;4.03;;;11.50;99.90;;;;;;4990336;28;20217;-76
2020/12/13 12:31:37;;;;;;;5.15;4.75;;;11.60;99.90;;;;;;4991512;28;20228;-77
2020/12/13 12:34:04;;;;;;;8.45;4.18;;;11.80;99.90;;;;;;4993312;28;20719;-74
2020/12/13 12:36:31;;;;;;;4.63;4.22;;;11.90;99.90;;;;;;4993273;28;20225;-73
2020/12/13 12:38:58;;;;;;;4.50;4.10;;;12.10;99.90;;;;;;4985799;28;20221;-74
2020/12/13 12:41:24;;;;;;;5.00;4.35;;;12.10;99.90;;;;;;4991009;28;20204;-75
2020/12/13 12:43:52;;;;;;;4.35;3.95;;;12.00;99.90;;;;;;4992013;28;20223;-75
2020/12/13 12:46:19;;;;;;;4.00;3.70;;;11.90;99.90;;;;;;4990373;28;20220;-75
2020/12/13 12:48:50;;;;;;;3.90;3.60;;;11.80;99.90;;;;;;4989184;28;20247;-75
2020/12/13 12:51:18;;;;;;;4.65;4.15;;;12.00;99.90;;;;;;4988997;28;20216;-76
2020/12/13 12:53:46;;;;;;;4.32;3.92;;;12.10;99.90;;;;;;4990558;28;20220;-75
2020/12/13 12:56:12;;;;;;;4.93;4.43;;;12.10;99.90;;;;;;4991170;28;20730;-76
2020/12/13 12:58:45;;;;;;;4.57;3.63;;;12.10;99.90;;;;;;4991326;28;20221;-75
2020/12/13 13:01:15;;;;;;;3.95;3.65;;;11.80;99.90;;;;;;4986741;28;20205;-75
2020/12/13 13:03:43;;;;;;;4.47;4.10;;;11.60;99.90;;;;;;4984716;28;20216;-74
2020/12/13 13:06:23;;;;;;;4.53;4.18;;;11.60;99.90;;;;;;4992317;28;20235;-74
2020/12/13 13:08:58;;;;;;;4.80;4.40;;;11.70;99.90;;;;;;4984450;28;20223;-75